< < Back
Terminal Aerodrome Forecast


Current Version              Previous Versions:   1  2  3  4  5  6  7  8  9  

Terminal Aerodrome Forecast

084
FTUS42 KTAE 111733
TAFABY
TAF
KABY 111733Z 1118/1218 25008G15KT P6SM SKC
     FM120000 20005KT P6SM SCT050
     FM120900 21003KT 3SM BR SCT015
     FM121500 25010KT P6SM OVC050=

Latest METAR

500
SAUS70 KWBC 120500 RRB
MTRABY
METAR KABY 120453Z AUTO 22003KT 10SM OVC016 13/10 A3020 RMK AO2 SLP225
T01330100 402111028


USA.gov is the U.S. government's official web portal to all federal, state and local government web resources and services.